sensor_id;sensor_type;location;lat;lon;timestamp;pressure;altitude;pressure_sealevel;temperature;humidity
73628;BME280;61923;51.846;5.856;2023-02-15T00:01:55;102811.22;;;14.98;65.38
73628;BME280;61923;51.846;5.856;2023-02-15T00:04:23;102825.38;;;15.08;65.42
73628;BME280;61923;51.846;5.856;2023-02-15T00:06:48;102838.94;;;15.13;65.41
73628;BME280;61923;51.846;5.856;2023-02-15T00:09:14;102838.22;;;15.11;65.23
73628;BME280;61923;51.846;5.856;2023-02-15T00:11:40;102846.81;;;15.13;65.35
73628;BME280;61923;51.846;5.856;2023-02-15T00:14:14;102840.75;;;15.12;65.60
73628;BME280;61923;51.846;5.856;2023-02-15T00:16:41;102838.94;;;15.13;65.43
73628;BME280;61923;51.846;5.856;2023-02-15T00:19:08;102834.78;;;15.10;65.36
73628;BME280;61923;51.846;5.856;2023-02-15T00:21:34;102834.53;;;15.13;65.53
73628;BME280;61923;51.846;5.856;2023-02-15T00:24:03;102835.84;;;15.08;65.40
73628;BME280;61923;51.846;5.856;2023-02-15T00:26:29;102841.56;;;15.13;65.51
73628;BME280;61923;51.846;5.856;2023-02-15T00:28:56;102837.28;;;15.12;65.55
73628;BME280;61923;51.846;5.856;2023-02-15T00:31:24;102826.09;;;15.10;65.51
73628;BME280;61923;51.846;5.856;2023-02-15T00:33:49;102836.34;;;15.13;65.62
73628;BME280;61923;51.846;5.856;2023-02-15T00:36:15;102827.66;;;15.12;65.51
73628;BME280;61923;51.846;5.856;2023-02-15T00:38:40;102821.78;;;15.09;65.57
73628;BME280;61923;51.846;5.856;2023-02-15T00:41:07;102820.88;;;15.10;65.72
73628;BME280;61923;51.846;5.856;2023-02-15T00:43:33;102818.25;;;15.10;65.70
73628;BME280;61923;51.846;5.856;2023-02-15T00:45:59;102806.44;;;15.04;65.72
73628;BME280;61923;51.846;5.856;2023-02-15T00:48:25;102813.00;;;15.10;65.53
73628;BME280;61923;51.846;5.856;2023-02-15T00:50:52;102805.28;;;15.08;65.67
73628;BME280;61923;51.846;5.856;2023-02-15T00:53:18;102799.22;;;15.08;65.89
73628;BME280;61923;51.846;5.856;2023-02-15T00:55:43;102795.63;;;15.09;65.73
73628;BME280;61923;51.846;5.856;2023-02-15T00:58:10;102792.28;;;15.07;65.77
73628;BME280;61923;51.846;5.856;2023-02-15T01:00:37;102791.56;;;15.05;65.68
73628;BME280;61923;51.846;5.856;2023-02-15T01:03:03;102797.53;;;15.07;65.80
73628;BME280;61923;51.846;5.856;2023-02-15T01:05:29;102795.72;;;15.07;65.88
73628;BME280;61923;51.846;5.856;2023-02-15T01:07:58;102801.94;;;15.06;65.77
73628;BME280;61923;51.846;5.856;2023-02-15T01:10:24;102790.50;;;15.07;65.86
73628;BME280;61923;51.846;5.856;2023-02-15T01:12:51;102787.06;;;15.07;65.93
73628;BME280;61923;51.846;5.856;2023-02-15T01:15:17;102794.91;;;15.07;66.07
73628;BME280;61923;51.846;5.856;2023-02-15T01:17:42;102786.13;;;15.08;66.01
73628;BME280;61923;51.846;5.856;2023-02-15T01:20:11;102790.50;;;15.07;65.89
73628;BME280;61923;51.846;5.856;2023-02-15T01:22:36;102782.88;;;15.04;66.00
73628;BME280;61923;51.846;5.856;2023-02-15T01:25:02;102776.81;;;15.04;65.91
73628;BME280;61923;51.846;5.856;2023-02-15T01:27:27;102783.81;;;15.03;65.81
73628;BME280;61923;51.846;5.856;2023-02-15T01:29:55;102783.59;;;15.06;65.93
73628;BME280;61923;51.846;5.856;2023-02-15T01:32:21;102781.19;;;15.03;65.70
73628;BME280;61923;51.846;5.856;2023-02-15T01:34:46;102760.59;;;14.99;65.86
73628;BME280;61923;51.846;5.856;2023-02-15T01:37:11;102763.94;;;15.01;65.95
73628;BME280;61923;51.846;5.856;2023-02-15T01:39:37;102767.38;;;15.01;65.91
73628;BME280;61923;51.846;5.856;2023-02-15T01:42:02;102749.84;;;14.90;65.81
73628;BME280;61923;51.846;5.856;2023-02-15T01:45:42;102761.31;;;15.01;66.07
73628;BME280;61923;51.846;5.856;2023-02-15T01:48:02;102756.09;;;15.01;66.03
73628;BME280;61923;51.846;5.856;2023-02-15T01:50:38;102760.59;;;14.99;65.97
73628;BME280;61923;51.846;5.856;2023-02-15T01:56:05;102753.81;;;14.96;66.17
73628;BME280;61923;51.846;5.856;2023-02-15T01:58:33;102760.50;;;15.00;66.34
73628;BME280;61923;51.846;5.856;2023-02-15T02:01:00;102760.59;;;14.99;66.24
73628;BME280;61923;51.846;5.856;2023-02-15T02:06:26;102765.72;;;15.00;66.34
73628;BME280;61923;51.846;5.856;2023-02-15T02:08:53;102742.00;;;14.90;66.42
73628;BME280;61923;51.846;5.856;2023-02-15T02:11:19;102753.69;;;14.98;66.15
73628;BME280;61923;51.846;5.856;2023-02-15T02:13:45;102749.31;;;14.98;66.30
73628;BME280;61923;51.846;5.856;2023-02-15T02:16:40;102752.13;;;14.95;66.13
73628;BME280;61923;51.846;5.856;2023-02-15T02:25:03;102746.06;;;14.94;66.38
73628;BME280;61923;51.846;5.856;2023-02-15T02:28:01;102730.06;;;14.86;66.23
73628;BME280;61923;51.846;5.856;2023-02-15T02:34:14;102718.25;;;14.81;66.50
73628;BME280;61923;51.846;5.856;2023-02-15T02:37:03;102735.81;;;14.91;66.50
73628;BME280;61923;51.846;5.856;2023-02-15T02:39:38;102703.44;;;14.68;66.38
73628;BME280;61923;51.846;5.856;2023-02-15T02:42:15;102731.63;;;14.89;66.16
73628;BME280;61923;51.846;5.856;2023-02-15T02:44:56;102732.34;;;14.91;66.30
73628;BME280;61923;51.846;5.856;2023-02-15T02:47:36;102725.47;;;14.90;66.42
73628;BME280;61923;51.846;5.856;2023-02-15T02:50:16;102721.28;;;14.87;66.40
73628;BME280;61923;51.846;5.856;2023-02-15T02:52:51;102722.22;;;14.86;66.43
73628;BME280;61923;51.846;5.856;2023-02-15T02:58:09;102711.66;;;14.88;66.36
73628;BME280;61923;51.846;5.856;2023-02-15T03:00:44;102693.03;;;14.80;66.46
73628;BME280;61923;51.846;5.856;2023-02-15T03:03:44;102701.31;;;14.86;66.39
73628;BME280;61923;51.846;5.856;2023-02-15T03:06:14;102700.56;;;14.84;66.46
73628;BME280;61923;51.846;5.856;2023-02-15T03:08:47;102696.28;;;14.83;66.52
73628;BME280;61923;51.846;5.856;2023-02-15T03:11:14;102701.41;;;14.85;66.48
73628;BME280;61923;51.846;5.856;2023-02-15T03:13:41;102697.88;;;14.86;66.47
73628;BME280;61923;51.846;5.856;2023-02-15T03:16:09;102684.38;;;14.79;66.44
73628;BME280;61923;51.846;5.856;2023-02-15T03:19:06;102694.38;;;14.85;66.90
73628;BME280;61923;51.846;5.856;2023-02-15T03:24:13;102678.50;;;14.76;66.61
73628;BME280;61923;51.846;5.856;2023-02-15T03:26:43;102690.00;;;14.86;66.51
73628;BME280;61923;51.846;5.856;2023-02-15T03:29:11;102682.28;;;14.84;66.73
73628;BME280;61923;51.846;5.856;2023-02-15T03:31:40;102685.81;;;14.83;66.85
73628;BME280;61923;51.846;5.856;2023-02-15T03:34:10;102678.81;;;14.84;66.79
73628;BME280;61923;51.846;5.856;2023-02-15T03:36:46;102672.00;;;14.81;66.83
73628;BME280;61923;51.846;5.856;2023-02-15T03:39:37;102669.41;;;14.81;66.56
73628;BME280;61923;51.846;5.856;2023-02-15T03:45:03;102666.78;;;14.81;66.73
73628;BME280;61923;51.846;5.856;2023-02-15T03:47:33;102673.69;;;14.82;66.69
73628;BME280;61923;51.846;5.856;2023-02-15T03:50:08;102668.66;;;14.79;66.65
73628;BME280;61923;51.846;5.856;2023-02-15T03:52:55;102659.47;;;14.73;66.58
73628;BME280;61923;51.846;5.856;2023-02-15T03:55:22;102670.34;;;14.80;66.51
73628;BME280;61923;51.846;5.856;2023-02-15T03:57:48;102661.06;;;14.76;66.56
73628;BME280;61923;51.846;5.856;2023-02-15T04:00:36;102655.81;;;14.76;66.54
73628;BME280;61923;51.846;5.856;2023-02-15T04:03:34;102626.47;;;14.60;66.48
73628;BME280;61923;51.846;5.856;2023-02-15T04:06:02;102648.91;;;14.75;66.80
73628;BME280;61923;51.846;5.856;2023-02-15T04:08:28;102648.81;;;14.77;66.71
73628;BME280;61923;51.846;5.856;2023-02-15T04:11:12;102643.91;;;14.72;66.74
73628;BME280;61923;51.846;5.856;2023-02-15T04:13:37;102650.38;;;14.79;66.71
73628;BME280;61923;51.846;5.856;2023-02-15T04:16:03;102647.13;;;14.76;66.67
73628;BME280;61923;51.846;5.856;2023-02-15T04:18:41;102647.13;;;14.76;66.55
73628;BME280;61923;51.846;5.856;2023-02-15T04:21:27;102636.38;;;14.67;66.53
73628;BME280;61923;51.846;5.856;2023-02-15T04:24:12;102655.31;;;14.71;66.55
73628;BME280;61923;51.846;5.856;2023-02-15T04:26:56;102653.41;;;14.73;66.66
73628;BME280;61923;51.846;5.856;2023-02-15T04:29:22;102654.38;;;14.72;66.57
73628;BME280;61923;51.846;5.856;2023-02-15T04:31:49;102657.00;;;14.72;66.44
73628;BME280;61923;51.846;5.856;2023-02-15T04:34:15;102648.44;;;14.70;66.57
73628;BME280;61923;51.846;5.856;2023-02-15T04:36:41;102635.28;;;14.59;66.55
73628;BME280;61923;51.846;5.856;2023-02-15T04:39:07;102646.97;;;14.66;66.58
73628;BME280;61923;51.846;5.856;2023-02-15T04:41:32;102648.44;;;14.70;66.50
73628;BME280;61923;51.846;5.856;2023-02-15T04:43:58;102655.31;;;14.71;66.56
73628;BME280;61923;51.846;5.856;2023-02-15T04:46:26;102651.13;;;14.68;66.39
73628;BME280;61923;51.846;5.856;2023-02-15T04:48:51;102648.44;;;14.70;66.49
73628;BME280;61923;51.846;5.856;2023-02-15T04:51:16;102650.81;;;14.73;66.44
73628;BME280;61923;51.846;5.856;2023-02-15T04:53:42;102645.81;;;14.70;66.55
73628;BME280;61923;51.846;5.856;2023-02-15T04:56:07;102646.75;;;14.69;66.48
73628;BME280;61923;51.846;5.856;2023-02-15T04:58:33;102644.47;;;14.64;66.43
73628;BME280;61923;51.846;5.856;2023-02-15T05:00:58;102641.75;;;14.66;66.45
73628;BME280;61923;51.846;5.856;2023-02-15T05:03:24;102639.22;;;14.64;66.42
73628;BME280;61923;51.846;5.856;2023-02-15T05:05:50;102636.63;;;14.64;66.32
73628;BME280;61923;51.846;5.856;2023-02-15T05:08:15;102631.50;;;14.63;66.26
73628;BME280;61923;51.846;5.856;2023-02-15T05:10:41;102636.72;;;14.63;65.85
73628;BME280;61923;51.846;5.856;2023-02-15T05:13:06;102631.50;;;14.63;66.21
73628;BME280;61923;51.846;5.856;2023-02-15T05:15:32;102633.38;;;14.61;66.10
73628;BME280;61923;51.846;5.856;2023-02-15T05:17:57;102626.47;;;14.60;66.62
73628;BME280;61923;51.846;5.856;2023-02-15T05:20:22;102624.81;;;14.59;65.94
73628;BME280;61923;51.846;5.856;2023-02-15T05:22:48;102627.44;;;14.59;65.91
73628;BME280;61923;51.846;5.856;2023-02-15T05:25:13;102626.69;;;14.57;65.96
73628;BME280;61923;51.846;5.856;2023-02-15T05:27:57;102603.91;;;14.46;66.04
73628;BME280;61923;51.846;5.856;2023-02-15T05:30:41;102617.13;;;14.55;66.00
73628;BME280;61923;51.846;5.856;2023-02-15T05:33:07;102618.84;;;14.57;65.82
73628;BME280;61923;51.846;5.856;2023-02-15T05:35:34;102612.88;;;14.54;65.93
73628;BME280;61923;51.846;5.856;2023-02-15T05:37:59;102614.53;;;14.55;66.07
73628;BME280;61923;51.846;5.856;2023-02-15T05:40:25;102612.97;;;14.53;65.70
73628;BME280;61923;51.846;5.856;2023-02-15T05:42:51;102608.56;;;14.53;65.84
73628;BME280;61923;51.846;5.856;2023-02-15T05:45:16;102610.47;;;14.51;65.78
73628;BME280;61923;51.846;5.856;2023-02-15T05:47:42;102613.06;;;14.51;65.75
73628;BME280;61923;51.846;5.856;2023-02-15T05:50:08;102618.31;;;14.51;65.59
73628;BME280;61923;51.846;5.856;2023-02-15T05:52:34;102622.69;;;14.51;65.93
73628;BME280;61923;51.846;5.856;2023-02-15T05:54:59;102615.59;;;14.53;65.56
73628;BME280;61923;51.846;5.856;2023-02-15T05:57:26;102608.28;;;14.45;65.80
73628;BME280;61923;51.846;5.856;2023-02-15T05:59:51;102624.38;;;14.52;65.79
73628;BME280;61923;51.846;5.856;2023-02-15T06:02:17;102615.19;;;14.46;65.62
73628;BME280;61923;51.846;5.856;2023-02-15T06:04:43;102624.50;;;14.50;65.67
73628;BME280;61923;51.846;5.856;2023-02-15T06:07:08;102618.31;;;14.51;65.73
73628;BME280;61923;51.846;5.856;2023-02-15T06:09:33;102618.53;;;14.48;65.51
73628;BME280;61923;51.846;5.856;2023-02-15T06:11:59;102618.53;;;14.48;65.81
73628;BME280;61923;51.846;5.856;2023-02-15T06:14:24;102626.38;;;14.48;65.55
73628;BME280;61923;51.846;5.856;2023-02-15T06:16:49;102629.00;;;14.48;65.94
73628;BME280;61923;51.846;5.856;2023-02-15T06:19:15;102626.59;;;14.45;65.80
73628;BME280;61923;51.846;5.856;2023-02-15T06:21:40;102628.25;;;14.46;65.71
73628;BME280;61923;51.846;5.856;2023-02-15T06:24:08;102632.78;;;14.44;65.87
73628;BME280;61923;51.846;5.856;2023-02-15T06:27:00;102619.91;;;14.41;65.83
73628;BME280;61923;51.846;5.856;2023-02-15T06:32:41;102624.31;;;14.41;65.78
73628;BME280;61923;51.846;5.856;2023-02-15T06:35:33;102618.44;;;14.37;65.29
73628;BME280;61923;51.846;5.856;2023-02-15T06:37:58;102623.97;;;14.45;65.28
73628;BME280;61923;51.846;5.856;2023-02-15T06:40:24;102629.19;;;14.45;65.20
73628;BME280;61923;51.846;5.856;2023-02-15T06:42:49;102616.97;;;14.46;65.29
73628;BME280;61923;51.846;5.856;2023-02-15T06:45:21;102619.59;;;14.46;65.17
73628;BME280;61923;51.846;5.856;2023-02-15T06:47:46;102615.09;;;14.48;65.35
73628;BME280;61923;51.846;5.856;2023-02-15T06:50:23;102611.97;;;14.43;65.36
73628;BME280;61923;51.846;5.856;2023-02-15T06:52:58;102615.81;;;14.50;65.29
73628;BME280;61923;51.846;5.856;2023-02-15T06:55:24;102616.31;;;14.55;64.99
73628;BME280;61923;51.846;5.856;2023-02-15T06:57:50;102613.91;;;14.65;64.68
73628;BME280;61923;51.846;5.856;2023-02-15T07:00:16;102612.03;;;14.67;64.92
73628;BME280;61923;51.846;5.856;2023-02-15T07:02:43;102601.03;;;14.62;64.84
73628;BME280;61923;51.846;5.856;2023-02-15T07:05:08;102607.03;;;14.64;65.06
73628;BME280;61923;51.846;5.856;2023-02-15T07:07:34;102607.97;;;14.63;64.94
73628;BME280;61923;51.846;5.856;2023-02-15T07:09:59;102597.94;;;14.57;65.05
73628;BME280;61923;51.846;5.856;2023-02-15T07:12:24;102603.44;;;14.65;64.62
73628;BME280;61923;51.846;5.856;2023-02-15T07:15:11;102596.13;;;14.70;64.30
73628;BME280;61923;51.846;5.856;2023-02-15T07:17:37;102599.22;;;14.75;64.35
73628;BME280;61923;51.846;5.856;2023-02-15T07:20:08;102593.28;;;14.73;64.08
73628;BME280;61923;51.846;5.856;2023-02-15T07:22:35;102573.25;;;14.61;63.97
73628;BME280;61923;51.846;5.856;2023-02-15T07:25:06;102604.09;;;14.80;63.79
73628;BME280;61923;51.846;5.856;2023-02-15T07:27:31;102598.47;;;14.86;63.67
73628;BME280;61923;51.846;5.856;2023-02-15T07:29:57;102589.81;;;14.97;63.22
73628;BME280;61923;51.846;5.856;2023-02-15T07:32:22;102589.84;;;15.43;61.82
73628;BME280;61923;51.846;5.856;2023-02-15T07:34:47;102587.69;;;15.84;60.52
73628;BME280;61923;51.846;5.856;2023-02-15T07:37:13;102583.09;;;16.42;58.52
73628;BME280;61923;51.846;5.856;2023-02-15T07:39:38;102574.44;;;17.48;55.27
73628;BME280;61923;51.846;5.856;2023-02-15T07:42:04;102584.91;;;17.69;54.49
73628;BME280;61923;51.846;5.856;2023-02-15T07:44:29;102572.59;;;18.01;53.58
73628;BME280;61923;51.846;5.856;2023-02-15T07:46:54;102572.59;;;18.41;52.43
73628;BME280;61923;51.846;5.856;2023-02-15T07:49:20;102559.44;;;18.70;51.68
73628;BME280;61923;51.846;5.856;2023-02-15T07:51:45;102566.03;;;19.43;49.94
73628;BME280;61923;51.846;5.856;2023-02-15T07:54:11;102565.00;;;19.73;49.07
73628;BME280;61923;51.846;5.856;2023-02-15T07:56:37;102569.66;;;19.42;50.01
73628;BME280;61923;51.846;5.856;2023-02-15T07:59:04;102574.56;;;19.07;50.49
73628;BME280;61923;51.846;5.856;2023-02-15T08:01:31;102573.03;;;18.76;51.90
73628;BME280;61923;51.846;5.856;2023-02-15T08:03:57;102556.78;;;18.51;52.34
73628;BME280;61923;51.846;5.856;2023-02-15T08:06:24;102561.09;;;19.20;51.07
73628;BME280;61923;51.846;5.856;2023-02-15T08:08:50;102558.25;;;20.62;47.60
73628;BME280;61923;51.846;5.856;2023-02-15T08:11:22;102543.25;;;21.33;45.96
73628;BME280;61923;51.846;5.856;2023-02-15T08:13:56;102553.13;;;22.42;43.80
73628;BME280;61923;51.846;5.856;2023-02-15T08:18:56;102541.75;;;24.25;39.66
73628;BME280;61923;51.846;5.856;2023-02-15T08:21:22;102537.91;;;24.59;39.34
73628;BME280;61923;51.846;5.856;2023-02-15T08:23:49;102543.22;;;24.74;38.91
73628;BME280;61923;51.846;5.856;2023-02-15T08:26:15;102534.63;;;25.55;36.92
73628;BME280;61923;51.846;5.856;2023-02-15T08:28:42;102524.81;;;26.28;35.50
73628;BME280;61923;51.846;5.856;2023-02-15T08:31:09;102527.59;;;26.20;35.24
73628;BME280;61923;51.846;5.856;2023-02-15T08:33:36;102521.97;;;25.42;36.16
73628;BME280;61923;51.846;5.856;2023-02-15T08:36:22;102523.19;;;24.49;37.58
73628;BME280;61923;51.846;5.856;2023-02-15T08:38:48;102522.66;;;24.07;38.39
73628;BME280;61923;51.846;5.856;2023-02-15T08:41:18;102525.44;;;24.60;37.60
73628;BME280;61923;51.846;5.856;2023-02-15T08:43:45;102524.94;;;24.10;38.17
73628;BME280;61923;51.846;5.856;2023-02-15T08:46:12;102527.63;;;23.71;39.29
73628;BME280;61923;51.846;5.856;2023-02-15T08:48:38;102535.75;;;22.80;41.53
73628;BME280;61923;51.846;5.856;2023-02-15T08:51:08;102530.63;;;23.03;40.93
73628;BME280;61923;51.846;5.856;2023-02-15T08:53:35;102528.91;;;23.35;40.50
73628;BME280;61923;51.846;5.856;2023-02-15T08:56:01;102526.78;;;24.56;37.94
73628;BME280;61923;51.846;5.856;2023-02-15T08:58:28;102529.09;;;24.97;37.48
73628;BME280;61923;51.846;5.856;2023-02-15T09:00:53;102534.66;;;23.55;40.09
73628;BME280;61923;51.846;5.856;2023-02-15T09:03:18;102535.28;;;22.77;41.95
73628;BME280;61923;51.846;5.856;2023-02-15T09:05:44;102531.75;;;22.19;43.68
73628;BME280;61923;51.846;5.856;2023-02-15T09:08:09;102526.69;;;21.83;44.32
73628;BME280;61923;51.846;5.856;2023-02-15T09:10:36;102518.22;;;21.79;44.70
73628;BME280;61923;51.846;5.856;2023-02-15T09:13:01;102518.75;;;21.22;46.17
73628;BME280;61923;51.846;5.856;2023-02-15T09:15:27;102518.75;;;21.22;46.61
73628;BME280;61923;51.846;5.856;2023-02-15T09:17:52;102521.19;;;20.89;47.49
73628;BME280;61923;51.846;5.856;2023-02-15T09:20:18;102531.16;;;20.42;48.71
73628;BME280;61923;51.846;5.856;2023-02-15T09:22:43;102525.22;;;19.94;50.04
73628;BME280;61923;51.846;5.856;2023-02-15T09:25:09;102519.66;;;19.97;50.35
73628;BME280;61923;51.846;5.856;2023-02-15T09:27:34;102524.34;;;19.76;50.74
73628;BME280;61923;51.846;5.856;2023-02-15T09:30:01;102516.06;;;19.23;52.07
73628;BME280;61923;51.846;5.856;2023-02-15T09:32:27;102526.72;;;19.32;52.29
73628;BME280;61923;51.846;5.856;2023-02-15T09:34:52;102525.75;;;19.13;52.82
73628;BME280;61923;51.846;5.856;2023-02-15T09:37:18;102519.84;;;18.92;53.10
73628;BME280;61923;51.846;5.856;2023-02-15T09:39:43;102532.59;;;18.96;53.42
73628;BME280;61923;51.846;5.856;2023-02-15T09:58:59;102521.22;;;18.27;55.75
73628;BME280;61923;51.846;5.856;2023-02-15T10:12:32;102518.13;;;18.13;56.44
73628;BME280;61923;51.846;5.856;2023-02-15T10:18:00;102517.41;;;18.01;56.97
73628;BME280;61923;51.846;5.856;2023-02-15T10:28:43;102514.84;;;17.80;57.68
73628;BME280;61923;51.846;5.856;2023-02-15T10:31:50;102518.69;;;17.76;57.64
73628;BME280;61923;51.846;5.856;2023-02-15T10:34:16;102515.50;;;17.72;57.75
73628;BME280;61923;51.846;5.856;2023-02-15T10:37:04;102511.19;;;17.71;57.82
73628;BME280;61923;51.846;5.856;2023-02-15T10:42:48;102513.53;;;17.64;58.01
73628;BME280;61923;51.846;5.856;2023-02-15T10:48:45;102510.09;;;17.64;58.06
73628;BME280;61923;51.846;5.856;2023-02-15T10:54:43;102510.22;;;17.62;58.37
73628;BME280;61923;51.846;5.856;2023-02-15T10:59:55;102517.38;;;17.60;58.40
73628;BME280;61923;51.846;5.856;2023-02-15T11:07:27;102511.19;;;17.71;58.29
73628;BME280;61923;51.846;5.856;2023-02-15T11:12:45;102503.88;;;17.75;58.52
73628;BME280;61923;51.846;5.856;2023-02-15T11:16:25;102499.75;;;17.72;58.32
73628;BME280;61923;51.846;5.856;2023-02-15T11:18:27;102501.13;;;17.76;58.38
73628;BME280;61923;51.846;5.856;2023-02-15T11:23:45;102502.38;;;17.72;58.74
73628;BME280;61923;51.846;5.856;2023-02-15T11:29:34;102496.69;;;17.77;57.62
73628;BME280;61923;51.846;5.856;2023-02-15T11:32:12;102499.44;;;17.75;57.92
73628;BME280;61923;51.846;5.856;2023-02-15T11:35:01;102496.53;;;17.68;58.09
73628;BME280;61923;51.846;5.856;2023-02-15T11:37:36;102465.78;;;17.49;58.22
73628;BME280;61923;51.846;5.856;2023-02-15T11:40:25;102478.63;;;17.52;58.45
73628;BME280;61923;51.846;5.856;2023-02-15T11:42:55;102479.19;;;17.46;58.85
73628;BME280;61923;51.846;5.856;2023-02-15T11:47:49;102474.56;;;17.39;59.21
73628;BME280;61923;51.846;5.856;2023-02-15T11:50:15;102470.81;;;17.31;59.33
73628;BME280;61923;51.846;5.856;2023-02-15T11:52:43;102458.34;;;17.24;59.67
73628;BME280;61923;51.846;5.856;2023-02-15T11:55:15;102435.91;;;17.10;59.94
73628;BME280;61923;51.846;5.856;2023-02-15T11:57:55;102448.22;;;17.19;60.00
73628;BME280;61923;51.846;5.856;2023-02-15T12:00:29;102445.75;;;17.18;60.10
73628;BME280;61923;51.846;5.856;2023-02-15T12:02:57;102439.41;;;17.20;60.03
73628;BME280;61923;51.846;5.856;2023-02-15T12:05:24;102416.31;;;17.14;59.64
73628;BME280;61923;51.846;5.856;2023-02-15T12:07:54;102431.44;;;17.31;59.76
73628;BME280;61923;51.846;5.856;2023-02-15T12:10:26;102415.25;;;17.26;59.62
73628;BME280;61923;51.846;5.856;2023-02-15T12:13:12;102422.47;;;17.34;59.75
73628;BME280;61923;51.846;5.856;2023-02-15T12:15:41;102415.81;;;17.30;59.73
73628;BME280;61923;51.846;5.856;2023-02-15T12:21:14;102414.53;;;17.24;59.96
73628;BME280;61923;51.846;5.856;2023-02-15T12:23:47;102411.75;;;17.16;60.14
73628;BME280;61923;51.846;5.856;2023-02-15T12:26:14;102396.66;;;17.08;60.11
73628;BME280;61923;51.846;5.856;2023-02-15T12:28:48;102403.59;;;17.19;60.28
73628;BME280;61923;51.846;5.856;2023-02-15T12:33:51;102384.63;;;17.06;60.30
73628;BME280;61923;51.846;5.856;2023-02-15T12:41:29;102390.25;;;17.01;60.62
73628;BME280;61923;51.846;5.856;2023-02-15T12:46:29;102401.50;;;17.13;60.68
73628;BME280;61923;51.846;5.856;2023-02-15T12:57:04;102393.91;;;17.10;60.89
73628;BME280;61923;51.846;5.856;2023-02-15T12:59:47;102382.53;;;17.00;61.15
73628;BME280;61923;51.846;5.856;2023-02-15T13:02:47;102379.75;;;17.01;61.25
73628;BME280;61923;51.846;5.856;2023-02-15T13:05:18;102387.91;;;16.98;61.34
73628;BME280;61923;51.846;5.856;2023-02-15T13:07:50;102375.44;;;16.90;61.34
73628;BME280;61923;51.846;5.856;2023-02-15T13:10:36;102369.25;;;16.91;61.39
73628;BME280;61923;51.846;5.856;2023-02-15T13:13:09;102368.84;;;16.96;61.56
73628;BME280;61923;51.846;5.856;2023-02-15T13:15:37;102375.88;;;16.96;61.60
73628;BME280;61923;51.846;5.856;2023-02-15T13:18:05;102373.38;;;16.94;61.63
73628;BME280;61923;51.846;5.856;2023-02-15T13:20:36;102373.63;;;16.91;61.66
73628;BME280;61923;51.846;5.856;2023-02-15T13:23:06;102376.97;;;16.93;61.75
73628;BME280;61923;51.846;5.856;2023-02-15T13:25:45;102374.22;;;16.95;61.65
73628;BME280;61923;51.846;5.856;2023-02-15T13:28:16;102371.47;;;16.96;61.63
73628;BME280;61923;51.846;5.856;2023-02-15T13:30:46;102345.75;;;16.90;61.50
73628;BME280;61923;51.846;5.856;2023-02-15T13:33:26;102354.88;;;16.96;61.66
73628;BME280;61923;51.846;5.856;2023-02-15T13:39:07;102351.88;;;17.00;61.45
73628;BME280;61923;51.846;5.856;2023-02-15T13:41:50;102332.78;;;16.98;61.48
73628;BME280;61923;51.846;5.856;2023-02-15T13:53:17;102314.44;;;16.98;61.44
73628;BME280;61923;51.846;5.856;2023-02-15T14:03:47;102320.94;;;17.04;61.51
73628;BME280;61923;51.846;5.856;2023-02-15T14:20:01;102302.09;;;16.89;61.75
73628;BME280;61923;51.846;5.856;2023-02-15T14:22:44;102318.00;;;16.97;61.92
73628;BME280;61923;51.846;5.856;2023-02-15T14:25:41;102321.47;;;16.98;61.85
73628;BME280;61923;51.846;5.856;2023-02-15T14:30:40;102325.75;;;16.99;61.93
73628;BME280;61923;51.846;5.856;2023-02-15T14:35:39;102306.38;;;16.90;61.87
73628;BME280;61923;51.846;5.856;2023-02-15T14:43:52;102326.72;;;16.98;61.98
73628;BME280;61923;51.846;5.856;2023-02-15T14:48:56;102327.78;;;16.95;62.00
73628;BME280;61923;51.846;5.856;2023-02-15T15:02:12;102333.69;;;16.87;62.01
73628;BME280;61923;51.846;5.856;2023-02-15T15:04:45;102336.47;;;16.86;62.04
73628;BME280;61923;51.846;5.856;2023-02-15T15:07:20;102335.91;;;16.82;62.05
73628;BME280;61923;51.846;5.856;2023-02-15T15:09:58;102329.94;;;16.80;61.98
73628;BME280;61923;51.846;5.856;2023-02-15T15:14:50;102331.59;;;16.81;61.99
73628;BME280;61923;51.846;5.856;2023-02-15T15:20:41;102326.72;;;16.77;62.05
73628;BME280;61923;51.846;5.856;2023-02-15T15:25:46;102304.28;;;16.63;62.09
73628;BME280;61923;51.846;5.856;2023-02-15T15:31:04;102321.19;;;16.70;62.14
73628;BME280;61923;51.846;5.856;2023-02-15T15:33:46;102322.97;;;16.69;62.12
73628;BME280;61923;51.846;5.856;2023-02-15T15:41:40;102318.22;;;16.63;62.33
73628;BME280;61923;51.846;5.856;2023-02-15T15:47:01;102313.13;;;16.62;62.18
73628;BME280;61923;51.846;5.856;2023-02-15T15:49:36;102301.09;;;16.59;62.37
73628;BME280;61923;51.846;5.856;2023-02-15T15:52:12;102293.06;;;16.51;62.32
73628;BME280;61923;51.846;5.856;2023-02-15T15:54:39;102278.53;;;16.47;62.45
73628;BME280;61923;51.846;5.856;2023-02-15T15:57:05;102297.94;;;16.56;62.59
73628;BME280;61923;51.846;5.856;2023-02-15T15:59:44;102295.84;;;16.59;62.40
73628;BME280;61923;51.846;5.856;2023-02-15T16:02:15;102273.69;;;16.42;62.44
73628;BME280;61923;51.846;5.856;2023-02-15T16:04:44;102303.16;;;16.56;62.52
73628;BME280;61923;51.846;5.856;2023-02-15T16:12:23;102299.28;;;16.50;62.63
73628;BME280;61923;51.846;5.856;2023-02-15T16:14:50;102309.06;;;16.48;62.68
73628;BME280;61923;51.846;5.856;2023-02-15T16:17:21;102279.00;;;16.31;62.93
73628;BME280;61923;51.846;5.856;2023-02-15T16:19:48;102306.81;;;16.43;62.91
73628;BME280;61923;51.846;5.856;2023-02-15T16:22:25;102308.03;;;16.39;62.91
73628;BME280;61923;51.846;5.856;2023-02-15T16:27:36;102303.88;;;16.37;63.10
73628;BME280;61923;51.846;5.856;2023-02-15T16:30:26;102296.84;;;16.37;62.89
73628;BME280;61923;51.846;5.856;2023-02-15T16:32:55;102282.31;;;16.33;62.66